Time;durP1;ratioP1;P1;durP2;ratioP2;P2;SDS_P1;SDS_P2;PMS_P1;PMS_P2;Temp;Humidity;BMP_temperature;BMP_pressure;BME280_temperature;BME280_humidity;BME280_pressure;Samples;Min_cycle;Max_cycle;Signal;HPM_P1;HPM_P2
2022/10/03 00:00:31;;;;;;;13.20;2.70;;;;;;;10.10;100.00;100939.72;5040678;28;20064;-82
2022/10/03 00:03:11;;;;;;;13.85;3.80;;;;;;;10.15;100.00;100945.78;5032614;28;20091;-80
2022/10/03 00:05:56;;;;;;;12.05;4.00;;;;;;;10.20;100.00;100943.97;5025225;28;20108;-81
2022/10/03 00:08:41;;;;;;;14.70;2.78;;;;;;;10.06;100.00;100945.91;5058737;28;20052;-80
2022/10/03 00:11:32;;;;;;;11.43;2.75;;;;;;;10.14;100.00;100944.03;5071304;28;20041;-86
2022/10/03 00:14:04;;;;;;;9.95;2.80;;;;;;;10.12;100.00;100938.78;5027138;28;20393;-81
2022/10/03 00:16:48;;;;;;;8.23;3.33;;;;;;;10.18;100.00;100945.75;5036849;28;20045;-82
2022/10/03 00:19:29;;;;;;;6.65;2.88;;;;;;;10.11;100.00;100944.97;5037091;28;20036;-85
2022/10/03 00:22:17;;;;;;;6.80;2.42;;;;;;;10.21;100.00;100942.19;5021470;28;20076;-81
2022/10/03 00:25:12;;;;;;;12.40;2.85;;;;;;;10.20;100.00;100943.97;5039839;28;20037;-82
2022/10/03 00:27:54;;;;;;;16.40;3.17;;;;;;;10.28;100.00;100946.53;5025626;28;20045;-81
2022/10/03 00:30:23;;;;;;;12.70;2.97;;;;;;;10.16;100.00;100953.66;5076666;28;20045;-83
2022/10/03 00:33:09;;;;;;;14.85;3.90;;;;;;;10.15;100.00;100956.34;5015630;28;20055;-80
2022/10/03 00:35:55;;;;;;;11.85;2.53;;;;;;;10.19;100.00;100963.34;5046080;28;20467;-84
2022/10/03 00:38:43;;;;;;;10.93;3.05;;;;;;;10.27;100.00;100955.34;5029349;28;20041;-81
2022/10/03 00:41:16;;;;;;;6.45;2.35;;;;;;;10.42;100.00;100963.91;5025959;28;20110;-81
2022/10/03 00:44:03;;;;;;;11.18;2.60;;;;;;;10.37;100.00;100971.03;5027032;28;20115;-81
2022/10/03 00:46:51;;;;;;;5.88;2.65;;;;;;;10.45;100.00;100970.03;5029490;28;20044;-81
2022/10/03 00:49:53;;;;;;;10.25;2.42;;;;;;;10.43;100.00;100967.44;5029663;28;20041;-80
2022/10/03 00:53:10;;;;;;;11.43;3.35;;;;;;;10.49;100.00;100974.38;5016564;28;20061;-80
2022/10/03 00:55:57;;;;;;;9.30;3.55;;;;;;;10.65;100.00;100970.59;5008002;28;20053;-82
2022/10/03 00:58:55;;;;;;;9.60;2.45;;;;;;;10.59;100.00;100973.31;5020573;28;20053;-81
2022/10/03 01:01:33;;;;;;;10.90;3.13;;;;;;;10.64;100.00;100968.84;5021566;28;20053;-81
2022/10/03 01:04:25;;;;;;;10.68;2.85;;;;;;;10.68;100.00;100974.09;5017294;28;20068;-81
2022/10/03 01:07:05;;;;;;;7.88;2.47;;;;;;;10.76;100.00;100975.69;5069919;28;20049;-80
2022/10/03 01:09:53;;;;;;;6.10;2.50;;;;;;;10.75;100.00;100976.59;5030170;28;20068;-82
2022/10/03 01:12:38;;;;;;;8.90;2.72;;;;;;;10.81;100.00;100980.03;5025291;28;20037;-79
2022/10/03 01:15:26;;;;;;;6.93;2.47;;;;;;;10.73;100.00;100974.00;5047956;28;20035;-80
2022/10/03 01:18:04;;;;;;;8.73;2.63;;;;;;;10.82;100.00;100976.47;5046097;28;20119;-80
2022/10/03 01:20:36;;;;;;;8.98;2.78;;;;;;;10.86;100.00;100991.41;5036331;28;20124;-80
2022/10/03 01:23:24;;;;;;;8.75;3.03;;;;;;;10.96;100.00;100989.47;5045959;28;20095;-81
2022/10/03 01:26:02;;;;;;;11.85;3.58;;;;;;;10.95;100.00;100985.09;5060388;28;20492;-79
2022/10/03 01:31:53;;;;;;;11.18;3.30;;;;;;;10.79;100.00;100996.81;5025447;28;20068;-81
2022/10/03 01:34:55;;;;;;;9.27;2.47;;;;;;;10.93;100.00;100986.88;5055085;28;20083;-83
2022/10/03 01:38:04;;;;;;;6.47;2.13;;;;;;;10.92;100.00;100999.22;5025401;28;20049;-81
2022/10/03 01:40:49;;;;;;;7.03;2.30;;;;;;;10.88;100.00;100997.53;5021774;28;20049;-81
2022/10/03 01:43:31;;;;;;;9.52;3.33;;;;;;;10.93;100.00;100997.44;5035558;28;20045;-80
2022/10/03 01:46:15;;;;;;;11.75;2.85;;;;;;;10.98;100.00;100999.13;5026472;28;20052;-79
2022/10/03 01:49:03;;;;;;;9.93;2.80;;;;;;;10.98;100.00;100995.59;5035652;28;20047;-80
2022/10/03 01:51:46;;;;;;;7.70;2.63;;;;;;;10.94;100.00;101002.72;5028404;28;20040;-80
2022/10/03 01:54:15;;;;;;;12.10;3.10;;;;;;;10.95;100.00;101000.97;5029738;28;20033;-82
2022/10/03 01:56:54;;;;;;;13.23;3.28;;;;;;;11.06;100.00;100995.47;5064454;28;20122;-81
2022/10/03 01:59:29;;;;;;;7.75;2.50;;;;;;;11.02;100.00;100991.16;5022854;28;20040;-84
2022/10/03 02:02:10;;;;;;;8.50;3.00;;;;;;;11.03;100.00;100984.97;5030143;28;20041;-80
2022/10/03 02:04:45;;;;;;;7.70;2.30;;;;;;;10.96;100.00;100989.47;5052782;28;20499;-82
2022/10/03 02:07:27;;;;;;;7.35;2.50;;;;;;;11.00;100.00;100988.50;5027067;28;20037;-81
2022/10/03 02:10:02;;;;;;;12.23;3.00;;;;;;;11.09;100.00;100991.00;5014325;28;20036;-81
2022/10/03 02:12:34;;;;;;;8.50;2.60;;;;;;;11.04;100.00;100997.28;5044578;28;20110;-82
2022/10/03 02:15:04;;;;;;;5.80;2.47;;;;;;;11.05;100.00;100996.38;5034404;28;20481;-82
2022/10/03 02:18:11;;;;;;;7.43;2.72;;;;;;;11.03;100.00;100996.41;5048676;28;20077;-82
2022/10/03 02:20:52;;;;;;;9.13;3.08;;;;;;;10.99;100.00;100997.34;5011139;28;20044;-82
2022/10/03 02:23:31;;;;;;;5.93;2.33;;;;;;;11.04;100.00;101003.44;5034374;28;20048;-82
2022/10/03 02:26:07;;;;;;;7.90;2.55;;;;;;;11.12;100.00;100996.25;5033677;28;20052;-82
2022/10/03 02:28:54;;;;;;;7.00;3.03;;;;;;;11.04;100.00;101005.22;5051158;28;20051;-83
2022/10/03 02:31:51;;;;;;;7.55;2.40;;;;;;;11.10;100.00;101006.00;5035874;28;20561;-83
2022/10/03 02:34:28;;;;;;;7.15;2.00;;;;;;;11.15;100.00;101006.78;5022561;28;20067;-82
2022/10/03 02:37:21;;;;;;;5.40;2.00;;;;;;;11.21;100.00;101021.66;5046998;28;20037;-82
2022/10/03 02:40:25;;;;;;;9.00;2.75;;;;;;;11.20;100.00;101010.22;5009081;28;20047;-83
2022/10/03 02:43:27;;;;;;;8.15;2.10;;;;;;;11.16;100.00;101019.09;5041580;28;20524;-83
2022/10/03 02:46:31;;;;;;;10.27;2.40;;;;;;;11.02;100.00;101018.47;5056095;28;20071;-83
2022/10/03 02:49:10;;;;;;;10.48;2.60;;;;;;;11.06;100.00;101025.44;5054257;28;20044;-82
2022/10/03 02:52:13;;;;;;;7.63;2.63;;;;;;;11.09;100.00;101021.84;5043143;28;20480;-82
2022/10/03 02:54:53;;;;;;;6.20;2.10;;;;;;;11.15;100.00;101032.34;5047824;28;20047;-83
2022/10/03 02:58:01;;;;;;;6.45;2.45;;;;;;;11.15;100.00;101037.63;5013904;28;20135;-82
2022/10/03 03:00:38;;;;;;;11.13;3.08;;;;;;;11.26;100.00;101031.25;5040829;28;20044;-84
2022/10/03 03:03:30;;;;;;;9.20;2.78;;;;;;;11.28;100.00;101039.19;5040751;28;20124;-84
2022/10/03 03:06:16;;;;;;;7.20;2.28;;;;;;;11.22;100.00;101037.50;5049627;28;20049;-84
2022/10/03 03:08:55;;;;;;;8.13;2.67;;;;;;;11.22;100.00;101034.00;5028011;28;20060;-84
2022/10/03 03:11:39;;;;;;;8.88;2.97;;;;;;;11.18;100.00;101045.50;5047358;28;20491;-85
2022/10/03 03:14:49;;;;;;;3.72;2.45;;;;;;;11.26;100.00;101033.03;5029400;28;20099;-84
2022/10/03 03:17:56;;;;;;;4.57;2.05;;;;;;;11.20;100.00;101046.38;5045296;28;20049;-84
2022/10/03 03:20:41;;;;;;;8.80;3.30;;;;;;;11.11;100.00;101057.97;5030442;28;20455;-84
2022/10/03 03:23:35;;;;;;;6.78;2.60;;;;;;;11.19;100.00;101053.44;5027028;28;20049;-84
2022/10/03 03:26:13;;;;;;;6.95;2.30;;;;;;;11.30;100.00;101057.66;5049895;28;20037;-84
2022/10/03 03:28:49;;;;;;;5.85;2.15;;;;;;;11.23;100.00;101052.47;5024273;28;20083;-83
2022/10/03 03:31:29;;;;;;;10.10;2.63;;;;;;;11.29;100.00;101056.78;5018819;28;20033;-85
2022/10/03 03:34:12;;;;;;;6.30;2.28;;;;;;;11.29;100.00;101054.16;5019778;28;20038;-83
2022/10/03 03:36:50;;;;;;;8.85;2.13;;;;;;;11.17;100.00;101055.22;5008379;28;20048;-82
2022/10/03 03:39:39;;;;;;;9.15;2.20;;;;;;;11.11;100.00;101063.28;5043185;28;20044;-82
2022/10/03 03:42:22;;;;;;;8.40;2.65;;;;;;;11.06;100.00;101065.09;5011429;28;20094;-84
2022/10/03 03:45:25;;;;;;;6.32;2.17;;;;;;;11.11;100.00;101060.63;5059237;28;20037;-84
2022/10/03 03:48:00;;;;;;;8.02;2.20;;;;;;;11.00;100.00;101081.06;5012964;28;20080;-85
2022/10/03 03:50:42;;;;;;;9.63;2.50;;;;;;;10.99;100.00;101074.88;5042736;28;20036;-84
2022/10/03 03:53:19;;;;;;;7.70;2.85;;;;;;;10.86;100.00;101083.91;5044258;28;20103;-84
2022/10/03 03:56:05;;;;;;;10.82;2.58;;;;;;;10.78;100.00;101069.94;5043203;28;20450;-84
2022/10/03 03:58:50;;;;;;;11.98;2.60;;;;;;;10.81;100.00;101084.88;5034009;28;20036;-85
2022/10/03 04:01:40;;;;;;;10.23;2.53;;;;;;;10.74;100.00;101088.50;5047167;28;20037;-84
2022/10/03 04:04:19;;;;;;;7.45;2.22;;;;;;;10.78;100.00;101093.72;5013493;28;20693;-86
2022/10/03 04:06:58;;;;;;;9.05;2.55;;;;;;;10.82;100.00;101098.06;5008678;28;20045;-87
2022/10/03 04:10:03;;;;;;;9.20;2.97;;;;;;;10.82;100.00;101099.84;5030304;28;20533;-87
2022/10/03 04:12:54;;;;;;;8.95;2.55;;;;;;;10.81;100.00;101098.97;5027220;28;20037;-86
2022/10/03 04:15:43;;;;;;;10.20;2.47;;;;;;;10.67;100.00;101099.16;5029992;28;20037;-86
2022/10/03 04:18:57;;;;;;;11.43;3.28;;;;;;;10.66;100.00;101100.03;5017980;28;20052;-86
2022/10/03 04:21:29;;;;;;;11.43;2.60;;;;;;;10.65;100.00;101103.59;4987313;28;20121;-87
2022/10/03 04:24:28;;;;;;;9.48;2.50;;;;;;;10.62;100.00;101111.56;4959950;28;20042;-85
2022/10/03 04:27:12;;;;;;;12.68;3.30;;;;;;;10.61;100.00;101109.81;5035787;28;20106;-87
2022/10/03 04:29:45;;;;;;;6.70;3.08;;;;;;;10.56;100.00;101119.56;5032010;28;20045;-86
2022/10/03 04:32:23;;;;;;;9.40;2.58;;;;;;;10.59;100.00;101111.59;5017430;28;20041;-88
2022/10/03 04:35:24;;;;;;;6.07;2.65;;;;;;;10.55;100.00;101114.31;5013933;28;20049;-86
2022/10/03 04:38:14;;;;;;;4.35;2.10;;;;;;;10.62;100.00;101111.56;5035387;28;20038;-86
2022/10/03 04:40:47;;;;;;;5.72;2.03;;;;;;;10.69;100.00;101112.38;5011397;28;20547;-85
2022/10/03 04:43:33;;;;;;;6.57;2.45;;;;;;;10.60;100.00;101109.84;5031774;28;20064;-87
2022/10/03 04:46:13;;;;;;;3.55;1.98;;;;;;;10.59;100.00;101113.34;5058539;28;20040;-85
2022/10/03 04:49:05;;;;;;;4.95;1.77;;;;;;;10.52;100.00;101114.34;5008790;28;20057;-86
2022/10/03 04:51:47;;;;;;;4.20;1.80;;;;;;;10.58;100.00;101119.53;5046252;28;20491;-87
2022/10/03 04:54:43;;;;;;;5.15;2.50;;;;;;;10.62;100.00;101122.13;5030868;28;20128;-86
2022/10/03 04:57:20;;;;;;;4.55;2.50;;;;;;;10.48;100.00;101132.00;5024383;28;20115;-88
2022/10/03 05:00:19;;;;;;;7.68;1.88;;;;;;;10.41;100.00;101125.03;5008928;28;20131;-86
2022/10/03 05:03:01;;;;;;;9.07;2.10;;;;;;;10.53;100.00;101124.91;5043685;28;20408;-88
2022/10/03 05:05:43;;;;;;;7.82;2.47;;;;;;;10.50;100.00;101147.81;5015218;28;20041;-87
2022/10/03 05:08:18;;;;;;;6.82;2.30;;;;;;;10.56;100.00;101140.69;5016016;28;20068;-85
2022/10/03 05:11:11;;;;;;;6.38;2.00;;;;;;;10.56;100.00;101137.19;5039895;28;20037;-85
2022/10/03 05:14:02;;;;;;;7.35;2.85;;;;;;;10.48;100.00;101137.28;5031907;28;20041;-87
2022/10/03 05:17:18;;;;;;;7.65;2.47;;;;;;;10.40;100.00;101131.22;5055922;28;20033;-84
2022/10/03 05:20:20;;;;;;;6.53;2.00;;;;;;;10.44;100.00;101135.59;5014304;28;20052;-84
2022/10/03 05:23:25;;;;;;;6.22;1.95;;;;;;;10.37;100.00;101136.56;5031172;28;20041;-85
2022/10/03 05:26:11;;;;;;;5.20;2.67;;;;;;;10.55;100.00;101135.44;5030467;28;20068;-85
2022/10/03 05:29:33;;;;;;;5.75;2.13;;;;;;;10.65;100.00;101150.28;5032796;28;20504;-86
2022/10/03 05:32:05;;;;;;;6.57;2.20;;;;;;;10.50;100.00;101151.34;5035825;28;20037;-86
2022/10/03 05:34:37;;;;;;;7.22;2.53;;;;;;;10.58;100.00;101156.53;5052468;28;20059;-86
2022/10/03 05:37:17;;;;;;;4.20;2.00;;;;;;;10.45;100.00;101147.91;5040785;28;20401;-85
2022/10/03 05:39:53;;;;;;;4.85;2.13;;;;;;;10.50;100.00;101163.66;5014773;28;20061;-87
2022/10/03 05:42:34;;;;;;;4.63;2.28;;;;;;;10.56;100.00;101161.84;5024989;28;20147;-85
2022/10/03 05:45:04;;;;;;;6.00;2.28;;;;;;;10.58;100.00;101153.88;5040419;28;20064;-84
2022/10/03 05:47:44;;;;;;;5.15;2.55;;;;;;;10.54;100.00;101166.28;5044603;28;20124;-86
2022/10/03 05:50:42;;;;;;;6.03;1.98;;;;;;;10.55;100.00;101168.03;5015966;28;20132;-86
2022/10/03 05:53:25;;;;;;;5.93;2.53;;;;;;;10.57;100.00;101166.22;5042820;28;20068;-85
2022/10/03 05:56:06;;;;;;;7.20;2.50;;;;;;;10.67;100.00;101174.91;5044735;28;20764;-86
2022/10/03 05:58:41;;;;;;;6.60;2.30;;;;;;;10.66;100.00;101170.53;5051359;28;20052;-86
2022/10/03 06:01:31;;;;;;;7.85;2.47;;;;;;;10.64;100.00;101182.88;5031305;28;20435;-84
2022/10/03 06:04:29;;;;;;;6.28;2.97;;;;;;;10.74;100.00;101181.88;5034297;28;20075;-86
2022/10/03 06:07:24;;;;;;;9.38;2.47;;;;;;;10.67;100.00;101177.53;5034924;28;20064;-85
2022/10/03 06:10:10;;;;;;;;;;;;;;;10.67;100.00;101189.00;5056998;28;20043;-86
2022/10/03 06:12:46;;;;;;;9.13;3.97;;;;;;;10.67;100.00;101183.72;5061366;28;19921;-85
2022/10/03 06:15:32;;;;;;;7.90;3.83;;;;;;;10.73;100.00;101190.69;5021772;28;20052;-86
2022/10/03 06:18:08;;;;;;;11.07;4.18;;;;;;;10.67;100.00;101194.28;5037037;28;20056;-85
2022/10/03 06:20:53;;;;;;;8.88;3.42;;;;;;;10.70;100.00;101198.66;5032582;28;20066;-85
2022/10/03 06:23:36;;;;;;;7.07;2.50;;;;;;;10.78;100.00;101198.56;5033006;28;20132;-84
2022/10/03 06:26:30;;;;;;;6.43;2.30;;;;;;;10.80;100.00;101202.94;5006067;28;20045;-87
2022/10/03 06:29:25;;;;;;;7.28;2.30;;;;;;;10.87;100.00;101209.91;5045881;28;20399;-86
2022/10/03 06:32:09;;;;;;;;;;;;;;;10.87;100.00;101216.97;5031943;28;20047;-87
2022/10/03 06:35:02;;;;;;;3.90;2.42;;;;;;;10.91;100.00;101216.00;5034627;28;19956;-88
2022/10/03 06:38:13;;;;;;;6.82;2.88;;;;;;;10.95;100.00;101215.09;5031067;28;20053;-86
2022/10/03 06:41:02;;;;;;;7.15;2.70;;;;;;;11.08;100.00;101221.94;5035887;28;20087;-86
2022/10/03 06:43:59;;;;;;;10.70;3.83;;;;;;;11.11;100.00;101223.69;5044505;28;20491;-84
2022/10/03 06:46:48;;;;;;;10.10;3.05;;;;;;;11.23;100.00;101219.09;5031210;28;20065;-87
2022/10/03 06:49:35;;;;;;;8.52;2.42;;;;;;;11.24;100.00;101217.31;5025001;28;20044;-85
2022/10/03 06:52:20;;;;;;;6.88;2.20;;;;;;;11.39;100.00;101225.03;5032174;28;20101;-86
2022/10/03 06:55:06;;;;;;;5.13;2.70;;;;;;;11.48;100.00;101226.69;5067144;28;20057;-85
2022/10/03 06:58:16;;;;;;;7.05;2.60;;;;;;;11.41;100.00;101220.59;5014910;28;20050;-86
2022/10/03 07:00:59;;;;;;;8.23;2.40;;;;;;;11.61;100.00;101222.09;5053986;28;20587;-87
2022/10/03 07:03:48;;;;;;;5.60;2.15;;;;;;;11.67;100.00;101233.41;5054961;28;20045;-86
2022/10/03 07:06:19;;;;;;;4.95;1.98;;;;;;;11.64;100.00;101238.78;5015634;28;20048;-86
2022/10/03 07:09:04;;;;;;;6.90;1.90;;;;;;;11.57;100.00;101239.75;5022389;28;20100;-85
2022/10/03 07:11:38;;;;;;;5.82;1.90;;;;;;;11.41;100.00;101240.88;5025856;28;20047;-85
2022/10/03 07:14:21;;;;;;;9.07;2.33;;;;;;;11.54;100.00;101239.81;5011539;28;20763;-87
2022/10/03 07:17:06;;;;;;;5.22;1.67;;;;;;;11.72;100.00;101238.66;5028828;28;20555;-85
2022/10/03 07:20:11;;;;;;;5.43;1.85;;;;;;;11.74;100.00;101242.16;5040466;28;20041;-87
2022/10/03 07:23:11;;;;;;;8.30;2.55;;;;;;;11.77;100.00;101242.09;5044535;28;20072;-86
2022/10/03 07:26:15;;;;;;;8.77;2.25;;;;;;;11.84;100.00;101239.34;5030813;28;20518;-85
2022/10/03 07:29:11;;;;;;;7.25;2.35;;;;;;;11.90;100.00;101248.97;5033811;28;20037;-82
2022/10/03 07:32:01;;;;;;;9.35;2.20;;;;;;;12.00;100.00;101250.56;5031558;28;20044;-85
2022/10/03 07:34:30;;;;;;;7.05;2.45;;;;;;;11.97;100.00;101252.41;5043736;28;20091;-85
2022/10/03 07:40:14;;;;;;;6.10;2.40;;;;;;;11.96;100.00;101253.31;5063324;28;20065;-86
2022/10/03 07:43:09;;;;;;;6.18;2.75;;;;;;;11.96;100.00;101266.56;5014767;28;20396;-84
2022/10/03 07:45:38;;;;;;;8.70;3.00;;;;;;;11.85;100.00;101266.69;5071419;28;20056;-84
2022/10/03 07:48:47;;;;;;;7.88;2.30;;;;;;;11.81;100.00;101263.25;5044608;28;20050;-87
2022/10/03 07:51:23;;;;;;;7.88;2.20;;;;;;;11.97;100.00;101265.66;5012217;28;20041;-85
2022/10/03 07:54:15;;;;;;;7.20;2.10;;;;;;;11.94;100.00;101278.91;5031306;28;20041;-82
2022/10/03 07:56:53;;;;;;;7.88;2.47;;;;;;;12.07;100.00;101286.66;5029798;28;20073;-84
2022/10/03 08:00:08;;;;;;;8.65;3.00;;;;;;;12.22;100.00;101287.28;5018072;28;20047;-83
2022/10/03 08:02:56;;;;;;;6.10;2.33;;;;;;;12.49;100.00;101291.22;5044146;28;20095;-83
2022/10/03 08:06:01;;;;;;;9.18;2.55;;;;;;;12.52;100.00;101299.09;5035711;28;20494;-86
2022/10/03 08:08:51;;;;;;;10.43;3.25;;;;;;;12.51;100.00;101290.28;5035962;28;20084;-82
2022/10/03 08:11:28;;;;;;;6.45;2.90;;;;;;;12.56;100.00;101298.16;5032971;28;20048;-84
2022/10/03 08:14:45;;;;;;;8.25;2.28;;;;;;;12.56;100.00;101299.03;5040144;28;20515;-83
2022/10/03 08:17:21;;;;;;;7.75;2.72;;;;;;;12.64;100.00;101301.56;5032649;28;20109;-82
2022/10/03 08:20:22;;;;;;;7.82;2.70;;;;;;;12.72;100.00;101306.72;5037498;28;20045;-82
2022/10/03 08:23:10;;;;;;;7.80;2.35;;;;;;;12.70;100.00;101309.41;5054404;28;20514;-82
2022/10/03 08:25:51;;;;;;;9.85;2.75;;;;;;;12.58;100.00;101313.13;5037852;28;20076;-83
2022/10/03 08:28:43;;;;;;;8.73;2.83;;;;;;;12.66;100.00;101326.25;5016182;28;20083;-83
2022/10/03 08:31:24;;;;;;;10.80;3.03;;;;;;;12.75;100.00;101320.78;5037223;28;20069;-83
2022/10/03 08:34:22;;;;;;;10.30;3.47;;;;;;;12.83;100.00;101321.50;5031666;28;20049;-83
2022/10/03 08:37:01;;;;;;;8.38;2.70;;;;;;;12.72;100.00;101322.63;5023395;28;20045;-82
2022/10/03 08:39:59;;;;;;;7.38;2.70;;;;;;;12.80;100.00;101329.53;5067615;28;20041;-83
2022/10/03 08:43:05;;;;;;;13.93;2.63;;;;;;;12.89;100.00;101325.81;5020469;28;20506;-82
2022/10/03 08:45:44;;;;;;;8.60;3.40;;;;;;;13.03;100.00;101323.78;5007377;28;20530;-83
2022/10/03 08:48:43;;;;;;;9.93;3.85;;;;;;;13.08;100.00;101326.31;5025794;28;20424;-82
2022/10/03 08:51:46;;;;;;;11.43;3.90;;;;;;;13.12;100.00;101333.34;5036781;28;20104;-84
2022/10/03 08:54:51;;;;;;;8.18;2.40;;;;;;;13.31;100.00;101328.56;5035676;28;20401;-82
2022/10/03 08:57:18;;;;;;;12.50;3.33;;;;;;;13.39;100.00;101332.78;5016178;28;20064;-82
2022/10/03 09:00:21;;;;;;;8.48;2.60;;;;;;;13.50;100.00;101341.38;5000528;28;20100;-82
2022/10/03 09:03:00;;;;;;;13.48;4.10;;;;;;;13.43;100.00;101342.41;5028450;28;20131;-82
2022/10/03 09:06:02;;;;;;;10.40;3.10;;;;;;;13.20;100.00;101342.91;5033667;28;20045;-85
2022/10/03 09:08:58;;;;;;;13.23;3.78;;;;;;;13.27;100.00;101342.78;5033013;28;20067;-82
2022/10/03 09:11:48;;;;;;;10.35;2.95;;;;;;;13.29;100.00;101335.69;5036623;28;20044;-83
2022/10/03 09:14:38;;;;;;;12.70;3.08;;;;;;;13.28;100.00;101339.22;5033630;28;20041;-83
2022/10/03 09:17:17;;;;;;;9.25;3.08;;;;;;;13.81;100.00;101327.44;5016592;28;20071;-82
2022/10/03 09:20:06;;;;;;;8.18;2.42;;;;;;;14.18;100.00;101338.03;5032737;28;20061;-82
2022/10/03 09:22:51;;;;;;;7.70;2.67;;;;;;;14.46;100.00;101338.28;5019799;28;20044;-82
2022/10/03 09:25:22;;;;;;;8.55;2.20;;;;;;;14.41;100.00;101340.13;5034034;28;20056;-82
2022/10/03 09:28:07;;;;;;;12.25;2.88;;;;;;;14.71;98.20;101343.78;5033963;28;20041;-82
2022/10/03 09:30:40;;;;;;;9.23;2.53;;;;;;;14.64;98.00;101345.78;5045900;28;20415;-81
2022/10/03 09:33:25;;;;;;;11.20;2.53;;;;;;;14.81;98.86;101339.13;5046295;28;20072;-81
2022/10/03 09:36:00;;;;;;;11.77;3.33;;;;;;;15.03;98.82;101344.72;5067398;28;20347;-81
2022/10/03 09:38:48;;;;;;;7.38;2.75;;;;;;;14.33;95.11;101332.34;5018681;28;20109;-82
2022/10/03 09:41:42;;;;;;;9.50;2.95;;;;;;;14.77;92.67;101335.66;5036300;28;20044;-83
2022/10/03 09:44:33;;;;;;;12.15;3.03;;;;;;;15.16;95.36;101343.47;5031020;28;20041;-83
2022/10/03 09:47:21;;;;;;;8.40;2.50;;;;;;;15.12;86.34;101349.78;5041813;28;20084;-81
2022/10/03 09:50:16;;;;;;;8.07;2.72;;;;;;;15.24;89.22;101357.44;5045309;28;20041;-83
2022/10/03 09:53:01;;;;;;;6.70;2.60;;;;;;;15.27;88.77;101341.34;5058110;28;20407;-81
2022/10/03 09:55:45;;;;;;;7.03;2.50;;;;;;;15.21;91.19;101328.22;5024171;28;20570;-81
2022/10/03 09:58:31;;;;;;;11.00;3.00;;;;;;;15.37;87.48;101333.97;5035207;28;20052;-81
2022/10/03 10:01:19;;;;;;;6.97;2.40;;;;;;;15.45;83.38;101335.47;5030895;28;20063;-83
2022/10/03 10:03:46;;;;;;;9.23;2.95;;;;;;;15.69;88.60;101343.69;5066908;28;20073;-82
2022/10/03 10:06:34;;;;;;;6.00;2.20;;;;;;;15.22;85.10;101343.31;5033847;28;20042;-83
2022/10/03 10:09:12;;;;;;;7.00;2.20;;;;;;;15.10;85.87;101339.19;5053924;28;20495;-82
2022/10/03 10:12:06;;;;;;;8.73;2.65;;;;;;;15.23;86.36;101341.50;5055674;28;20033;-82
2022/10/03 10:14:48;;;;;;;9.38;2.78;;;;;;;15.55;86.36;101335.22;5037992;28;20053;-84
2022/10/03 10:17:59;;;;;;;8.88;2.42;;;;;;;15.81;83.45;101358.41;5023796;28;20045;-83
2022/10/03 10:20:48;;;;;;;9.07;2.35;;;;;;;15.83;84.83;101344.16;5051575;28;20050;-82
2022/10/03 10:23:36;;;;;;;6.15;2.08;;;;;;;15.80;83.19;101351.34;5039705;28;20091;-83
2022/10/03 13:15:47;;;;;;;6.88;2.03;;;;;;;12.99;100.00;101375.13;5089913;27;20402;-85
2022/10/03 13:18:34;;;;;;;4.18;1.92;;;;;;;13.18;100.00;101373.84;5046689;28;20056;-84
2022/10/03 13:21:15;;;;;;;6.72;2.55;;;;;;;13.26;100.00;101376.41;5063854;28;20055;-81
2022/10/03 13:24:31;;;;;;;5.22;1.98;;;;;;;13.43;100.00;101371.63;5061627;28;20450;-80
2022/10/03 13:27:27;;;;;;;6.38;1.83;;;;;;;13.52;100.00;101371.41;5059246;28;20127;-79
2022/10/03 13:30:05;;;;;;;7.22;2.13;;;;;;;13.60;100.00;101378.34;5029931;28;20037;-81
2022/10/03 13:32:41;;;;;;;3.58;1.90;;;;;;;13.59;100.00;101368.63;5028843;28;20048;-79
2022/10/03 13:38:38;;;;;;;5.22;2.10;;;;;;;13.67;100.00;101362.25;5065025;28;20071;-82
2022/10/03 13:41:07;;;;;;;7.47;2.60;;;;;;;13.65;100.00;101357.91;5058939;28;20045;-81
2022/10/03 13:43:36;;;;;;;5.85;2.03;;;;;;;13.60;100.00;101357.09;5031102;28;20033;-82
2022/10/03 13:46:15;;;;;;;5.68;1.90;;;;;;;13.66;100.00;101356.97;5046708;28;20642;-82
2022/10/03 13:48:50;;;;;;;4.70;2.22;;;;;;;13.73;100.00;101359.47;5045621;28;20045;-81
2022/10/03 13:51:44;;;;;;;5.38;2.25;;;;;;;13.84;100.00;101348.59;5028929;28;20064;-81
2022/10/03 13:54:20;;;;;;;3.65;2.13;;;;;;;13.92;100.00;101343.97;5033249;28;20055;-81
2022/10/03 13:56:51;;;;;;;4.65;2.28;;;;;;;13.94;100.00;101338.63;5035436;28;20036;-81
2022/10/03 13:59:34;;;;;;;4.18;2.28;;;;;;;14.08;100.00;101349.81;5048964;28;20037;-82
2022/10/03 14:02:08;;;;;;;4.85;2.30;;;;;;;13.99;100.00;101350.91;5043918;28;20493;-81
2022/10/03 14:04:53;;;;;;;3.83;2.00;;;;;;;14.00;100.00;101341.16;5062941;28;20560;-80
2022/10/03 14:07:39;;;;;;;8.13;3.13;;;;;;;14.07;100.00;101343.63;5062385;28;20044;-81
2022/10/03 14:10:44;;;;;;;7.93;2.88;;;;;;;14.06;100.00;101341.88;5073265;28;20075;-80
2022/10/03 14:13:23;;;;;;;;;;;;;;;14.03;100.00;101335.75;5047576;28;20049;-80
2022/10/03 14:16:14;;;;;;;5.20;2.13;;;;;;;14.05;100.00;101336.59;5049296;28;19987;-82
2022/10/03 14:18:50;;;;;;;4.88;2.28;;;;;;;14.08;100.00;101332.09;5045242;28;20052;-82
2022/10/03 14:21:35;;;;;;;4.72;2.35;;;;;;;14.13;100.00;101331.97;5026974;28;20379;-81
2022/10/03 14:24:25;;;;;;;9.02;2.45;;;;;;;14.17;100.00;101332.78;5051880;28;20111;-81
2022/10/03 14:27:13;;;;;;;9.32;2.45;;;;;;;14.28;100.00;101338.69;5028794;28;20433;-80
2022/10/03 14:29:39;;;;;;;4.85;2.05;;;;;;;14.28;100.00;101342.22;5046257;28;20449;-82
2022/10/03 14:32:16;;;;;;;7.00;3.03;;;;;;;14.44;100.00;101332.06;5050035;28;20049;-81
2022/10/03 14:35:37;;;;;;;4.03;1.80;;;;;;;14.56;100.00;101337.13;5065809;28;20037;-81
2022/10/03 14:38:22;;;;;;;5.05;1.90;;;;;;;14.71;100.00;101342.94;5038018;28;20152;-81
2022/10/03 14:40:52;;;;;;;7.65;2.17;;;;;;;14.70;100.00;101335.88;5023820;28;20631;-82
2022/10/03 14:43:45;;;;;;;8.70;2.05;;;;;;;14.73;100.00;101327.81;5032727;28;20049;-81
2022/10/03 14:46:14;;;;;;;5.43;1.80;;;;;;;14.48;100.00;101324.94;5019423;28;20559;-82
2022/10/03 14:48:43;;;;;;;5.85;2.67;;;;;;;14.43;100.00;101326.78;5066759;28;20036;-80
2022/10/03 14:51:25;;;;;;;5.07;1.88;;;;;;;14.32;100.00;101332.41;5009145;28;20049;-81
2022/10/03 14:53:56;;;;;;;5.45;2.13;;;;;;;14.10;100.00;101329.38;5026450;28;20120;-82
2022/10/03 14:56:25;;;;;;;8.10;2.33;;;;;;;14.12;100.00;101329.34;5056224;28;20079;-82
2022/10/03 14:59:00;;;;;;;9.60;2.50;;;;;;;14.12;100.00;101334.66;5030455;28;20494;-81
2022/10/03 15:01:27;;;;;;;9.48;2.45;;;;;;;14.00;100.00;101333.19;5065096;28;20045;-81
2022/10/03 15:04:12;;;;;;;9.15;2.97;;;;;;;13.81;100.00;101335.41;5047414;28;20071;-82
2022/10/03 15:06:53;;;;;;;7.13;2.65;;;;;;;13.80;100.00;101337.19;5040049;28;20065;-82
2022/10/03 15:09:32;;;;;;;8.82;3.28;;;;;;;13.79;100.00;101330.13;5035721;28;20129;-81
2022/10/03 15:12:21;;;;;;;7.55;2.10;;;;;;;13.64;100.00;101329.59;5050553;28;20045;-81
2022/10/03 15:15:15;;;;;;;9.20;2.33;;;;;;;13.72;100.00;101346.22;5029082;28;20617;-81
2022/10/03 15:17:46;;;;;;;9.02;2.33;;;;;;;13.46;100.00;101341.50;5047798;28;20052;-81
2022/10/03 15:20:18;;;;;;;3.50;1.80;;;;;;;13.39;100.00;101342.53;5042442;28;20049;-82
2022/10/03 15:22:51;;;;;;;6.85;1.92;;;;;;;13.55;100.00;101343.06;5056259;28;20041;-81
2022/10/03 15:25:22;;;;;;;6.03;1.70;;;;;;;13.56;100.00;101352.78;5046675;28;20037;-81
2022/10/03 15:27:53;;;;;;;9.65;3.03;;;;;;;13.47;100.00;101353.84;5043595;28;20037;-81
2022/10/03 15:30:24;;;;;;;7.03;2.08;;;;;;;13.37;100.00;101347.88;5034812;28;20041;-81
2022/10/03 15:33:18;;;;;;;7.05;1.92;;;;;;;13.30;100.00;101350.69;5031793;28;20044;-82
2022/10/03 15:35:48;;;;;;;5.45;1.67;;;;;;;13.27;100.00;101348.06;5050354;28;20071;-80
2022/10/03 15:38:25;;;;;;;6.55;2.65;;;;;;;13.27;100.00;101348.94;5045266;28;20132;-82
2022/10/03 15:41:15;;;;;;;10.45;2.97;;;;;;;13.35;100.00;101347.00;5035731;28;20535;-82